Time;durP1;ratioP1;P1;durP2;ratioP2;P2;SDS_P1;SDS_P2;PMS_P1;PMS_P2;Temp;Humidity;BMP_temperature;BMP_pressure;BME280_temperature;BME280_humidity;BME280_pressure;Samples;Min_cycle;Max_cycle;Signal;HPM_P1;HPM_P2
2024/02/08 00:01:22;;;;;;;4.67;2.20;;;;;;;9.27;68.00;96571.34;6238108;28;20647;-57
2024/02/08 00:04:24;;;;;;;2.10;1.30;;;;;;;9.20;68.40;96578.72;6234791;28;20193;-58
2024/02/08 00:07:26;;;;;;;4.33;1.70;;;;;;;9.17;68.70;96573.97;6242000;28;20199;-57
2024/02/08 00:10:28;;;;;;;3.67;1.73;;;;;;;9.09;69.23;96573.66;6236319;28;20216;-58
2024/02/08 00:13:30;;;;;;;3.67;1.50;;;;;;;8.94;70.53;96561.09;6229912;28;20694;-59
2024/02/08 00:16:33;;;;;;;2.93;1.30;;;;;;;8.98;70.97;96575.47;6234009;28;20226;-58
2024/02/08 00:19:35;;;;;;;7.17;2.27;;;;;;;9.07;70.50;96581.88;6233504;28;20536;-58
2024/02/08 00:22:37;;;;;;;3.43;1.57;;;;;;;9.15;70.29;96585.88;6241460;28;20288;-57
2024/02/08 00:25:39;;;;;;;5.93;1.67;;;;;;;9.16;70.33;96563.56;6235626;28;20851;-58
2024/02/08 00:28:42;;;;;;;4.77;1.93;;;;;;;9.13;71.45;96572.88;6230838;28;20273;-58
2024/02/08 00:31:45;;;;;;;2.30;1.20;;;;;;;9.17;70.98;96567.84;6236425;28;20715;-58
2024/02/08 00:34:48;;;;;;;4.50;1.40;;;;;;;9.15;72.24;96567.28;6228323;28;20200;-57
2024/02/08 00:37:50;;;;;;;5.57;2.00;;;;;;;9.14;72.26;96563.84;6227777;28;20200;-58
2024/02/08 00:40:53;;;;;;;3.33;1.47;;;;;;;9.16;72.44;96560.91;6226840;28;20267;-59
2024/02/08 00:43:55;;;;;;;3.77;1.30;;;;;;;9.10;72.83;96565.41;6229591;28;20224;-58
2024/02/08 00:46:57;;;;;;;2.87;1.60;;;;;;;9.20;72.46;96560.13;6240961;28;20191;-58
2024/02/08 00:49:59;;;;;;;4.10;1.20;;;;;;;9.22;73.46;96562.56;6233503;28;20597;-58
2024/02/08 00:53:05;;;;;;;4.00;1.20;;;;;;;9.17;73.73;96578.47;6233056;28;20189;-58
2024/02/08 00:56:13;;;;;;;3.23;1.30;;;;;;;9.20;73.49;96576.06;6225995;28;20203;-57
2024/02/08 00:59:15;;;;;;;2.93;0.90;;;;;;;9.19;73.27;96563.84;6225530;28;20343;-56
2024/02/08 01:02:18;;;;;;;1.67;1.07;;;;;;;9.18;73.51;96559.59;6233675;28;20541;-59
2024/02/08 01:05:20;;;;;;;1.30;1.07;;;;;;;9.15;73.98;96584.03;6227854;28;20200;-57
2024/02/08 01:08:23;;;;;;;1.80;1.00;;;;;;;9.35;72.87;96574.53;6226087;28;20196;-58
2024/02/08 01:11:25;;;;;;;3.23;1.00;;;;;;;9.28;73.22;96578.25;6227344;28;20339;-58
2024/02/08 01:14:27;;;;;;;1.80;1.23;;;;;;;9.19;73.47;96569.16;6223899;28;20212;-57
2024/02/08 01:17:29;;;;;;;5.43;1.60;;;;;;;9.11;73.40;96552.91;6231477;28;20192;-58
2024/02/08 01:20:32;;;;;;;3.77;1.27;;;;;;;9.17;73.85;96559.88;6230231;28;20204;-58
2024/02/08 01:23:34;;;;;;;2.10;1.33;;;;;;;9.19;73.16;96568.38;6236829;28;20231;-57
2024/02/08 01:26:37;;;;;;;1.80;0.90;;;;;;;9.37;71.96;96573.22;6224682;28;21002;-57
2024/02/08 01:29:39;;;;;;;1.60;1.00;;;;;;;9.32;71.93;96567.09;6229740;28;20236;-58
2024/02/08 01:32:41;;;;;;;2.40;1.03;;;;;;;9.31;72.62;96571.63;6226923;28;20201;-59
2024/02/08 01:35:43;;;;;;;1.87;0.80;;;;;;;9.25;72.57;96559.34;6229150;28;20285;-58
2024/02/08 01:38:46;;;;;;;3.27;1.30;;;;;;;9.37;72.21;96562.59;6227552;28;20220;-58
2024/02/08 01:41:49;;;;;;;2.37;1.03;;;;;;;9.20;72.74;96552.16;6233499;28;20669;-58
2024/02/08 01:45:01;;;;;;;1.57;0.80;;;;;;;9.01;73.66;96540.41;6225940;28;20228;-58
2024/02/08 01:48:12;;;;;;;2.57;1.00;;;;;;;9.15;73.85;96554.00;6237948;28;20188;-58
2024/02/08 01:51:16;;;;;;;2.83;0.90;;;;;;;9.16;73.95;96552.94;6231831;28;20257;-59
2024/02/08 01:54:19;;;;;;;2.10;1.07;;;;;;;9.01;75.23;96549.19;6232796;28;20204;-59
2024/02/08 01:57:21;;;;;;;1.33;0.70;;;;;;;9.03;75.06;96549.72;6225290;28;20189;-56
2024/02/08 02:00:23;;;;;;;1.80;1.00;;;;;;;8.92;76.54;96552.59;6228224;28;20288;-57
2024/02/08 02:03:25;;;;;;;2.00;1.10;;;;;;;8.88;77.63;96541.69;6231750;28;20693;-58
2024/02/08 02:06:28;;;;;;;2.00;1.20;;;;;;;8.88;78.01;96532.91;6230817;28;20572;-57
2024/02/08 02:09:31;;;;;;;2.33;1.00;;;;;;;8.85;78.38;96541.41;6223135;28;20195;-58
2024/02/08 02:12:33;;;;;;;1.70;1.13;;;;;;;8.83;79.32;96539.00;6226895;28;20280;-58
2024/02/08 02:15:37;;;;;;;2.03;1.40;;;;;;;8.87;79.05;96539.28;6235723;28;20204;-57
2024/02/08 02:18:40;;;;;;;2.33;1.17;;;;;;;8.80;79.56;96539.50;6234015;28;20196;-58
2024/02/08 02:21:44;;;;;;;2.17;1.30;;;;;;;8.73;80.61;96537.09;6233562;28;20197;-57
2024/02/08 02:24:50;;;;;;;1.73;1.40;;;;;;;8.60;81.48;96552.69;6230228;28;20243;-59
2024/02/08 02:27:55;;;;;;;1.43;1.27;;;;;;;8.49;82.12;96546.50;6231101;28;20671;-57
2024/02/08 02:30:57;;;;;;;3.33;1.40;;;;;;;8.51;82.68;96549.69;6229125;28;20196;-58
2024/02/08 02:34:00;;;;;;;2.70;1.43;;;;;;;8.60;82.09;96532.25;6228882;28;20220;-57
2024/02/08 02:37:03;;;;;;;2.63;1.27;;;;;;;8.61;81.76;96536.47;6228248;28;20189;-58
2024/02/08 02:40:07;;;;;;;2.07;1.30;;;;;;;8.72;81.36;96571.88;6220530;28;20636;-58
2024/02/08 02:43:09;;;;;;;1.03;0.90;;;;;;;8.72;80.74;96548.78;6232804;28;20562;-58
2024/02/08 02:46:12;;;;;;;1.53;0.90;;;;;;;8.64;81.20;96551.91;6226800;28;20189;-58
2024/02/08 02:49:14;;;;;;;1.87;1.00;;;;;;;8.57;81.87;96564.63;6236165;28;20189;-58
2024/02/08 02:52:16;;;;;;;1.97;0.73;;;;;;;8.52;82.28;96576.00;6234072;28;20195;-57
2024/02/08 02:55:19;;;;;;;1.43;0.60;;;;;;;8.56;81.55;96562.22;6231401;28;20258;-56
2024/02/08 02:58:23;;;;;;;2.67;0.60;;;;;;;8.56;81.30;96549.72;6239443;28;20610;-57
2024/02/08 03:01:27;;;;;;;2.50;0.60;;;;;;;8.48;82.02;96545.72;6231254;28;20854;-58
2024/02/08 03:04:30;;;;;;;1.13;0.50;;;;;;;8.52;82.29;96544.16;6241196;28;20665;-58
2024/02/08 03:07:32;;;;;;;1.97;0.60;;;;;;;8.57;81.58;96547.88;6248667;28;20227;-58
2024/02/08 03:10:38;;;;;;;0.60;0.50;;;;;;;8.57;81.23;96548.69;6242570;28;20219;-58
2024/02/08 03:13:42;;;;;;;1.20;0.40;;;;;;;8.41;81.68;96513.28;6232006;28;20290;-57
2024/02/08 03:16:47;;;;;;;1.10;0.57;;;;;;;8.47;81.54;96538.81;6238125;28;20204;-57
2024/02/08 03:19:50;;;;;;;0.40;0.37;;;;;;;8.35;82.21;96519.59;6234944;28;20670;-58
2024/02/08 03:22:52;;;;;;;0.87;0.60;;;;;;;8.36;82.71;96547.75;6234287;28;20569;-58
2024/02/08 03:25:56;;;;;;;0.57;0.43;;;;;;;8.22;83.29;96520.81;6242367;28;20231;-58
2024/02/08 03:28:59;;;;;;;0.33;0.30;;;;;;;8.47;82.10;96522.06;6239949;28;20552;-57
2024/02/08 03:32:03;;;;;;;0.57;0.57;;;;;;;8.48;83.02;96535.09;6231197;28;20695;-56
2024/02/08 03:35:06;;;;;;;1.63;0.50;;;;;;;8.38;84.69;96531.59;6228214;28;20288;-57
2024/02/08 03:38:08;;;;;;;0.53;0.47;;;;;;;8.36;84.50;96528.34;6232244;28;20195;-59
2024/02/08 03:41:11;;;;;;;0.40;0.40;;;;;;;8.25;85.71;96544.19;6237970;28;20191;-60
2024/02/08 03:44:15;;;;;;;0.40;0.40;;;;;;;8.17;86.12;96527.94;6238231;28;20291;-58
2024/02/08 03:47:18;;;;;;;0.30;0.30;;;;;;;8.22;85.62;96522.66;6233798;28;20699;-57
2024/02/08 03:50:24;;;;;;;0.60;0.40;;;;;;;8.30;85.86;96527.50;6242988;28;20195;-57
2024/02/08 03:53:26;;;;;;;0.57;0.43;;;;;;;8.20;86.02;96527.44;6233195;28;20196;-56
2024/02/08 03:56:36;;;;;;;1.00;0.53;;;;;;;8.18;86.06;96524.25;6219103;28;20229;-57
2024/02/08 03:59:42;;;;;;;0.53;0.53;;;;;;;8.21;85.44;96531.69;6232621;28;20200;-58
2024/02/08 04:02:44;;;;;;;2.23;0.60;;;;;;;8.22;85.75;96522.66;6226961;28;20196;-58
2024/02/08 04:55:56;;;;;;;1.47;0.70;;;;;;;7.14;90.23;96493.63;6226059;28;20860;-58
2024/02/08 04:58:58;;;;;;;0.80;0.70;;;;;;;6.98;90.21;96493.47;6230274;28;20189;-58
2024/02/08 05:02:21;;;;;;;0.97;0.63;;;;;;;6.78;90.11;96498.53;6229314;28;20882;-57
2024/02/08 05:05:24;;;;;;;0.83;0.60;;;;;;;6.62;91.60;96500.19;6223336;28;20193;-58
2024/02/08 05:08:26;;;;;;;2.73;0.60;;;;;;;6.48;92.80;96504.22;6234691;28;20203;-58
2024/02/08 05:11:28;;;;;;;0.87;0.57;;;;;;;6.43;94.19;96499.66;6226486;28;20195;-58
2024/02/08 05:14:35;;;;;;;1.13;0.60;;;;;;;6.40;94.89;96489.59;6235410;28;20222;-58
2024/02/08 05:17:38;;;;;;;0.73;0.60;;;;;;;6.39;95.20;96487.97;6230963;28;20199;-58
2024/02/08 05:20:40;;;;;;;0.87;0.70;;;;;;;6.42;96.04;96484.06;6224475;28;20658;-58
2024/02/08 05:23:43;;;;;;;0.97;0.60;;;;;;;6.41;96.36;96482.47;6229023;28;20222;-58
2024/02/08 05:26:46;;;;;;;1.03;0.53;;;;;;;6.40;96.00;96492.25;6231955;28;20693;-58
2024/02/08 05:29:49;;;;;;;0.93;0.57;;;;;;;6.37;96.64;96484.78;6236986;28;20206;-57
2024/02/08 05:32:51;;;;;;;2.43;0.70;;;;;;;6.22;96.15;96465.28;6231546;28;20194;-58
2024/02/08 05:35:56;;;;;;;0.77;0.50;;;;;;;6.72;95.69;96494.22;6235817;28;20246;-58
2024/02/08 05:38:58;;;;;;;1.03;0.47;;;;;;;7.35;91.82;96486.72;6234295;28;20661;-58
2024/02/08 05:42:02;;;;;;;0.63;0.60;;;;;;;7.85;88.48;96486.34;6225573;28;20196;-58
2024/02/08 05:45:20;;;;;;;0.90;0.50;;;;;;;8.17;86.39;96481.00;6226793;28;20189;-56
2024/02/08 05:48:27;;;;;;;0.60;0.50;;;;;;;8.34;85.31;96480.06;6229201;28;20204;-58
2024/02/08 05:51:31;;;;;;;1.40;0.90;;;;;;;8.44;84.76;96458.91;6223235;28;20684;-57
2024/02/08 05:54:36;;;;;;;1.90;0.63;;;;;;;8.60;83.74;96487.09;6231144;28;20211;-58
2024/02/08 05:57:44;;;;;;;2.33;0.57;;;;;;;8.70;83.33;96483.72;6233925;28;20692;-58
2024/02/08 06:00:52;;;;;;;0.67;0.60;;;;;;;8.40;84.28;96444.56;6232964;28;20196;-57
2024/02/08 06:04:00;;;;;;;2.47;0.67;;;;;;;8.57;85.17;96482.34;6230328;28;20338;-58
2024/02/08 06:07:05;;;;;;;1.37;0.50;;;;;;;8.74;83.88;96508.69;6227344;28;20196;-58
2024/02/08 06:10:13;;;;;;;2.40;0.60;;;;;;;8.58;84.74;96462.69;6231365;28;20204;-58
2024/02/08 06:13:17;;;;;;;1.90;0.67;;;;;;;8.81;84.18;96500.47;6249178;28;20204;-59
2024/02/08 06:16:26;;;;;;;1.60;0.50;;;;;;;8.91;84.44;96521.75;6234364;28;20293;-57
2024/02/08 06:22:54;;;;;;;0.83;0.50;;;;;;;8.92;84.78;96520.72;6235566;28;20761;-58
2024/02/08 06:26:30;;;;;;;0.30;0.30;;;;;;;8.90;85.75;96528.94;6237990;28;20189;-58
2024/02/08 06:29:38;;;;;;;0.93;0.50;;;;;;;8.80;87.81;96528.88;6230366;28;20215;-58
2024/02/08 07:50:47;;;;;;;0.50;0.40;;;;;;;9.79;87.75;96543.78;6334052;27;20551;-53
2024/02/08 07:53:54;;;;;;;0.63;0.47;;;;;;;9.75;87.61;96533.94;6340518;28;20674;-55
2024/02/08 08:03:49;;;;;;;0.40;0.37;;;;;;;9.96;86.13;96524.16;6224244;28;20208;-63
2024/02/08 08:06:52;;;;;;;0.40;0.40;;;;;;;9.96;86.96;96532.91;6221552;28;20212;-61
2024/02/08 08:10:08;;;;;;;0.40;0.30;;;;;;;10.01;86.63;96540.09;6228561;28;20677;-62
2024/02/08 08:13:14;;;;;;;0.20;0.20;;;;;;;10.16;86.40;96550.75;6208655;28;20699;-62
2024/02/08 08:19:38;;;;;;;0.33;0.30;;;;;;;10.54;83.65;96540.59;6229072;28;20253;-62
2024/02/08 08:22:50;;;;;;;2.63;0.40;;;;;;;10.54;83.07;96541.44;6224993;28;20208;-62
2024/02/08 08:26:23;;;;;;;1.57;0.40;;;;;;;10.51;84.41;96541.97;6229703;28;20664;-62
2024/02/08 08:29:26;;;;;;;0.20;0.20;;;;;;;10.57;85.49;96538.22;6221818;28;20196;-62
2024/02/08 08:38:44;;;;;;;0.73;0.30;;;;;;;10.58;87.16;96557.66;6218658;28;20203;-62
2024/02/08 08:41:48;;;;;;;0.20;0.20;;;;;;;10.12;91.68;96555.00;6230575;28;20663;-62
2024/02/08 08:44:59;;;;;;;0.20;0.20;;;;;;;10.23;90.75;96555.78;6226370;28;20205;-63
2024/02/08 08:48:03;;;;;;;0.40;0.23;;;;;;;10.07;98.14;96566.44;6227821;28;20595;-62
2024/02/08 08:51:11;;;;;;;0.33;0.30;;;;;;;9.86;98.45;96553.41;6214990;28;20199;-63
2024/02/08 08:54:14;;;;;;;0.30;0.30;;;;;;;9.95;97.78;96555.28;6205531;28;20673;-63
2024/02/08 08:57:18;;;;;;;0.50;0.20;;;;;;;9.53;100.00;96566.09;6206220;28;20803;-63
2024/02/08 09:00:31;;;;;;;0.97;0.30;;;;;;;9.69;98.89;96564.25;6203757;28;20247;-59
2024/02/08 09:03:38;;;;;;;0.33;0.30;;;;;;;9.50;100.00;96566.59;6214360;28;20195;-63
2024/02/08 09:06:41;;;;;;;0.20;0.20;;;;;;;9.49;100.00;96573.00;6212438;28;20241;-63
2024/02/08 09:10:00;;;;;;;0.50;0.30;;;;;;;9.34;100.00;96567.63;6218154;28;20191;-63
2024/02/08 09:13:07;;;;;;;1.80;0.40;;;;;;;9.39;100.00;96573.75;6207821;28;20677;-63
2024/02/08 09:19:31;;;;;;;0.20;0.20;;;;;;;9.41;100.00;96563.69;6202864;28;20214;-63
2024/02/08 09:22:34;;;;;;;0.20;0.20;;;;;;;9.41;100.00;96562.84;6213963;28;20675;-63
2024/02/08 09:25:37;;;;;;;0.70;0.20;;;;;;;9.53;100.00;96553.59;6210924;28;20273;-63
2024/02/08 09:28:42;;;;;;;0.20;0.20;;;;;;;9.79;100.00;96556.28;6209549;28;20236;-62
2024/02/08 09:31:46;;;;;;;0.20;0.20;;;;;;;9.87;100.00;96561.09;6212383;28;20284;-62
2024/02/08 09:34:53;;;;;;;0.30;0.30;;;;;;;10.04;97.44;96551.00;6212806;28;20329;-62
2024/02/08 09:37:56;;;;;;;0.27;0.20;;;;;;;10.24;95.34;96566.19;6203202;28;20856;-62
2024/02/08 09:41:01;;;;;;;0.17;0.17;;;;;;;10.21;95.24;96563.25;6211324;28;20673;-62
2024/02/08 09:44:09;;;;;;;0.20;0.20;;;;;;;10.30;95.90;96561.69;6211032;28;20226;-61
2024/02/08 09:47:25;;;;;;;0.20;0.20;;;;;;;10.33;94.34;96571.78;6213745;28;20666;-62
2024/02/08 09:50:35;;;;;;;0.90;0.57;;;;;;;10.33;95.63;96569.13;6205257;28;20217;-62
2024/02/08 09:53:48;;;;;;;0.20;0.20;;;;;;;10.42;92.09;96567.53;6208291;28;20798;-61
2024/02/08 09:56:53;;;;;;;0.20;0.20;;;;;;;10.51;92.93;96560.59;6215281;28;20210;-62
2024/02/08 09:59:59;;;;;;;0.20;0.20;;;;;;;10.46;91.30;96557.16;6203663;28;20259;-62
2024/02/08 10:03:31;;;;;;;0.20;0.20;;;;;;;10.47;92.81;96564.84;6207419;28;20201;-62
2024/02/08 10:10:03;;;;;;;0.20;0.20;;;;;;;10.45;92.44;96563.53;6217039;28;20325;-61
2024/02/08 10:13:13;;;;;;;0.97;0.20;;;;;;;10.30;93.15;96540.41;6207930;28;20203;-62
2024/02/08 10:16:20;;;;;;;0.20;0.20;;;;;;;10.43;95.07;96563.78;6197072;28;20196;-62
2024/02/08 10:19:35;;;;;;;0.20;0.20;;;;;;;10.46;92.50;96549.94;6213637;28;20352;-62
2024/02/08 10:22:53;;;;;;;0.10;0.10;;;;;;;10.51;92.13;96570.44;6205265;28;20200;-63
2024/02/08 10:29:24;;;;;;;0.20;0.20;;;;;;;10.40;95.51;96547.56;6203647;28;20195;-61
2024/02/08 10:32:30;;;;;;;0.90;0.30;;;;;;;10.26;97.16;96532.13;6211489;28;20208;-62
2024/02/08 10:35:39;;;;;;;1.30;0.10;;;;;;;10.28;99.27;96531.88;6208478;28;20202;-62
2024/02/08 10:38:56;;;;;;;0.20;0.20;;;;;;;10.27;98.51;96517.75;6184307;28;20610;-62
2024/02/08 10:42:01;;;;;;;0.33;0.20;;;;;;;10.56;93.71;96533.97;6204249;28;20673;-60
2024/02/08 10:45:05;;;;;;;0.30;0.20;;;;;;;10.69;93.43;96523.78;6204020;28;20291;-62
2024/02/08 10:48:13;;;;;;;0.23;0.10;;;;;;;10.83;93.92;96519.50;6207267;28;20204;-63
2024/02/08 10:51:25;;;;;;;0.10;0.10;;;;;;;10.98;91.23;96510.66;6203876;28;20301;-63
2024/02/08 10:54:42;;;;;;;0.27;0.20;;;;;;;11.07;92.67;96496.47;6201431;28;20331;-62
2024/02/08 10:58:20;;;;;;;0.20;0.20;;;;;;;11.22;86.89;96516.13;6201845;28;20197;-62
2024/02/08 11:01:33;;;;;;;0.23;0.20;;;;;;;11.44;83.66;96503.25;6205515;28;20311;-63
2024/02/08 11:04:51;;;;;;;0.10;0.10;;;;;;;11.52;82.98;96491.16;6214395;28;20276;-61
2024/02/08 11:07:54;;;;;;;0.10;0.10;;;;;;;11.56;82.17;96501.00;6201797;28;20196;-62
2024/02/08 11:11:09;;;;;;;0.10;0.10;;;;;;;11.59;83.33;96513.00;6215203;28;20198;-61
2024/02/08 11:14:19;;;;;;;0.10;0.10;;;;;;;11.58;86.16;96508.75;6205209;28;20201;-63
2024/02/08 11:17:25;;;;;;;0.20;0.20;;;;;;;11.61;81.03;96492.97;6208511;28;20208;-62
2024/02/08 11:20:42;;;;;;;0.20;0.20;;;;;;;11.60;81.75;96502.06;6211168;28;20227;-60
2024/02/08 11:23:57;;;;;;;0.10;0.10;;;;;;;11.68;82.15;96497.22;6208970;28;20192;-61
2024/02/08 11:27:02;;;;;;;0.87;0.17;;;;;;;11.70;81.52;96479.06;6194421;28;20312;-62
2024/02/08 11:30:11;;;;;;;0.10;0.10;;;;;;;11.69;83.06;96482.81;6202689;28;20729;-61
2024/02/08 11:33:13;;;;;;;0.23;0.23;;;;;;;11.79;80.32;96477.41;6204437;28;20208;-61
2024/02/08 11:36:17;;;;;;;0.20;0.20;;;;;;;11.92;78.46;96494.66;6208648;28;20200;-60
2024/02/08 11:39:30;;;;;;;0.20;0.20;;;;;;;12.12;77.68;96473.16;6207918;28;20576;-61
2024/02/08 11:42:36;;;;;;;0.10;0.10;;;;;;;12.10;77.92;96465.41;6212873;28;20204;-61
2024/02/08 11:45:52;;;;;;;0.20;0.20;;;;;;;12.17;77.18;96462.44;6202313;28;20745;-61
2024/02/08 11:49:09;;;;;;;0.10;0.10;;;;;;;12.47;77.36;96450.63;6208916;28;20191;-61
2024/02/08 11:52:19;;;;;;;0.10;0.10;;;;;;;12.36;76.86;96441.94;6205362;28;20212;-61
2024/02/08 11:55:23;;;;;;;0.10;0.10;;;;;;;12.34;75.69;96440.63;6204659;28;20200;-61
2024/02/08 11:58:29;;;;;;;0.10;0.10;;;;;;;12.56;74.41;96438.25;6207839;28;20846;-61
2024/02/08 12:01:33;;;;;;;0.20;0.20;;;;;;;12.44;78.15;96435.16;6210353;28;20293;-62
2024/02/08 12:04:36;;;;;;;0.10;0.10;;;;;;;12.49;75.38;96415.63;6209883;28;20669;-61
2024/02/08 12:07:45;;;;;;;0.10;0.10;;;;;;;12.56;75.80;96410.72;6208039;28;20250;-62
2024/02/08 12:10:49;;;;;;;0.20;0.20;;;;;;;12.60;73.72;96414.41;6203312;28;20213;-61
2024/02/08 12:13:56;;;;;;;0.20;0.20;;;;;;;12.52;75.00;96415.84;6194222;28;20669;-63
2024/02/08 12:17:20;;;;;;;0.30;0.30;;;;;;;12.61;73.70;96427.50;6211304;28;20216;-61
2024/02/08 12:20:24;;;;;;;0.10;0.10;;;;;;;12.63;73.74;96425.34;6210776;28;20614;-62
2024/02/08 12:23:30;;;;;;;0.10;0.10;;;;;;;12.55;76.05;96419.81;6202475;28;20195;-62
2024/02/08 12:26:38;;;;;;;1.00;0.50;;;;;;;12.45;72.51;96406.56;6216230;28;20193;-62
2024/02/08 12:29:53;;;;;;;0.20;0.20;;;;;;;12.43;74.49;96406.88;6206679;28;20638;-62
2024/02/08 12:32:57;;;;;;;0.23;0.10;;;;;;;12.55;72.43;96406.47;6216501;28;20197;-60
2024/02/08 12:36:00;;;;;;;0.10;0.10;;;;;;;12.53;71.53;96400.63;6204131;28;20198;-61
2024/02/08 12:39:17;;;;;;;0.10;0.10;;;;;;;12.51;72.61;96392.91;6209099;28;20705;-63
2024/02/08 12:42:23;;;;;;;0.20;0.20;;;;;;;12.49;71.55;96391.56;6217573;28;20558;-62
2024/02/08 12:45:29;;;;;;;0.10;0.10;;;;;;;12.52;71.00;96378.47;6207643;28;20201;-62
2024/02/08 12:48:32;;;;;;;0.20;0.20;;;;;;;12.64;71.05;96364.66;6205165;28;20685;-63
2024/02/08 12:51:40;;;;;;;0.10;0.10;;;;;;;12.65;70.70;96355.56;6204615;28;20659;-62
2024/02/08 12:54:42;;;;;;;0.23;0.20;;;;;;;12.78;69.92;96352.19;6216197;28;20232;-63
2024/02/08 12:57:55;;;;;;;0.10;0.10;;;;;;;12.71;71.51;96350.94;6217509;28;20626;-63
2024/02/08 13:01:04;;;;;;;0.20;0.10;;;;;;;12.80;71.13;96350.03;6205415;28;20296;-63
2024/02/08 13:04:07;;;;;;;0.23;0.10;;;;;;;12.84;68.47;96351.03;6219099;28;20193;-60
2024/02/08 13:07:17;;;;;;;0.10;0.10;;;;;;;12.97;68.13;96357.56;6213336;28;20192;-63
2024/02/08 13:10:24;;;;;;;0.20;0.20;;;;;;;13.08;71.24;96353.63;6212947;28;20197;-61
2024/02/08 13:13:28;;;;;;;0.10;0.10;;;;;;;13.07;68.97;96351.25;6198603;28;20551;-63
2024/02/08 13:16:33;;;;;;;0.13;0.13;;;;;;;13.08;66.79;96334.13;6207589;28;20241;-63
2024/02/08 13:19:39;;;;;;;0.50;0.17;;;;;;;13.11;68.99;96342.38;6207003;28;20216;-62
2024/02/08 13:22:45;;;;;;;0.10;0.10;;;;;;;13.11;69.89;96344.25;6212667;28;20211;-62
2024/02/08 13:25:47;;;;;;;0.20;0.20;;;;;;;13.24;67.88;96353.44;6217513;28;20659;-62
2024/02/08 13:28:49;;;;;;;0.20;0.20;;;;;;;13.16;69.02;96344.97;6214060;28;20208;-62
2024/02/08 13:31:52;;;;;;;0.50;0.10;;;;;;;13.20;67.51;96339.84;6212832;28;20777;-63
2024/02/08 13:34:58;;;;;;;0.10;0.10;;;;;;;13.26;66.82;96340.59;6213823;28;20197;-63
2024/02/08 13:38:01;;;;;;;0.10;0.10;;;;;;;13.33;66.28;96346.34;6209053;28;20645;-62
2024/02/08 13:41:05;;;;;;;0.10;0.10;;;;;;;13.40;66.67;96328.84;6207605;28;20677;-62
2024/02/08 13:44:07;;;;;;;0.20;0.20;;;;;;;13.46;64.75;96331.44;6204555;28;20602;-62
2024/02/08 13:47:12;;;;;;;0.20;0.20;;;;;;;13.37;67.19;96340.13;6200977;28;20188;-63
2024/02/08 13:50:28;;;;;;;0.10;0.10;;;;;;;13.33;67.30;96338.31;6213098;28;20186;-64
2024/02/08 13:53:37;;;;;;;0.10;0.10;;;;;;;13.30;71.12;96336.22;6206894;28;20658;-63
2024/02/08 13:56:41;;;;;;;0.13;0.13;;;;;;;13.27;68.36;96334.94;6216899;28;20224;-63
2024/02/08 14:07:11;;;;;;;0.30;0.20;;;;;;;13.35;68.56;96326.25;6206971;28;20581;-57
2024/02/08 14:10:17;;;;;;;0.17;0.17;;;;;;;13.33;67.99;96327.63;6213289;28;20208;-58
2024/02/08 14:13:28;;;;;;;0.40;0.20;;;;;;;13.23;70.72;96327.78;6201387;28;20213;-57
2024/02/08 14:16:37;;;;;;;0.10;0.10;;;;;;;13.26;68.52;96327.22;6191019;28;20411;-60
2024/02/08 14:19:42;;;;;;;0.10;0.10;;;;;;;13.16;69.13;96326.25;6211226;28;20835;-58
2024/02/08 14:22:46;;;;;;;0.20;0.20;;;;;;;13.31;67.33;96324.47;6208141;28;20696;-57
2024/02/08 14:25:58;;;;;;;0.20;0.20;;;;;;;13.25;69.18;96314.91;6207375;28;20200;-58
2024/02/08 14:29:00;;;;;;;0.20;0.20;;;;;;;13.18;69.94;96317.94;6213336;28;20197;-58
2024/02/08 14:32:05;;;;;;;0.93;0.20;;;;;;;13.25;70.11;96313.06;6212513;28;20668;-58
2024/02/08 14:35:31;;;;;;;0.20;0.20;;;;;;;13.09;69.11;96312.44;6205785;28;20747;-56
2024/02/08 14:38:41;;;;;;;0.27;0.13;;;;;;;13.22;67.61;96318.19;6206544;28;20196;-58
2024/02/08 14:41:43;;;;;;;1.40;0.30;;;;;;;13.05;71.81;96313.31;6202821;28;20646;-57
2024/02/08 14:44:50;;;;;;;0.63;0.30;;;;;;;13.03;69.12;96308.28;6210044;28;20663;-57
2024/02/08 14:47:52;;;;;;;0.40;0.20;;;;;;;13.01;68.64;96280.25;6203408;28;20197;-57
2024/02/08 14:54:19;;;;;;;0.47;0.20;;;;;;;12.99;70.34;96279.72;6210767;28;20849;-57
2024/02/08 14:57:24;;;;;;;0.20;0.20;;;;;;;13.06;69.02;96294.34;6210123;28;20284;-58
2024/02/08 15:03:39;;;;;;;0.97;0.20;;;;;;;13.05;66.55;96290.06;6207604;28;20197;-58
2024/02/08 15:10:10;;;;;;;0.20;0.20;;;;;;;12.99;66.25;96291.22;6209855;28;20268;-58
2024/02/08 15:13:18;;;;;;;0.10;0.10;;;;;;;12.91;67.07;96281.19;6213214;28;20196;-58
2024/02/08 15:16:30;;;;;;;0.20;0.20;;;;;;;12.95;68.75;96270.69;6209683;28;20193;-57
2024/02/08 15:19:47;;;;;;;0.27;0.20;;;;;;;12.92;71.29;96280.13;6200330;28;20207;-58
2024/02/08 15:23:09;;;;;;;0.20;0.20;;;;;;;12.72;72.35;96285.75;6184410;28;20686;-59
2024/02/08 15:26:12;;;;;;;0.70;0.70;;;;;;;12.61;74.11;96279.75;6213819;28;20205;-58
2024/02/08 15:32:54;;;;;;;0.73;0.33;;;;;;;12.45;73.65;96289.06;6206505;28;20669;-58
2024/02/08 15:36:01;;;;;;;1.93;0.30;;;;;;;12.36;75.19;96283.56;6216014;28;20311;-58
2024/02/08 15:42:35;;;;;;;0.27;0.27;;;;;;;12.14;77.71;96279.56;6165801;28;20307;-57
2024/02/08 15:45:41;;;;;;;0.30;0.30;;;;;;;12.04;79.40;96286.91;6206411;28;20201;-56
2024/02/08 15:48:44;;;;;;;0.20;0.20;;;;;;;12.13;73.88;96274.53;6208340;28;20197;-57
2024/02/08 15:51:49;;;;;;;0.20;0.20;;;;;;;12.25;74.12;96264.22;6214106;28;20208;-57
2024/02/08 15:54:58;;;;;;;1.23;0.30;;;;;;;12.09;76.49;96257.47;6207635;28;20204;-59
2024/02/08 15:58:17;;;;;;;0.30;0.20;;;;;;;12.01;78.00;96255.44;6199114;28;20685;-58
2024/02/08 16:01:49;;;;;;;0.20;0.20;;;;;;;11.77;78.63;96240.22;6208374;28;20337;-58
2024/02/08 16:04:44;;;;;;;0.40;0.30;;;;;;;11.55;80.57;96247.94;6207328;28;20228;-59
2024/02/08 16:07:57;;;;;;;0.20;0.20;;;;;;;11.41;81.99;96257.66;6216818;28;20192;-58
2024/02/08 16:11:18;;;;;;;0.20;0.20;;;;;;;11.24;82.83;96261.56;6205343;28;20340;-57
2024/02/08 16:14:25;;;;;;;2.10;0.23;;;;;;;11.18;83.52;96254.69;6215281;28;20697;-58
2024/02/08 16:20:36;;;;;;;0.23;0.23;;;;;;;10.85;85.68;96230.44;6206654;28;20725;-59
2024/02/08 16:23:47;;;;;;;1.30;0.30;;;;;;;10.82;86.93;96238.19;6215933;28;20681;-58
2024/02/08 16:26:56;;;;;;;1.00;0.37;;;;;;;10.54;88.44;96234.38;6213522;28;20188;-58
2024/02/08 16:30:02;;;;;;;4.33;0.30;;;;;;;10.54;89.03;96245.03;6210833;28;20193;-58
2024/02/08 16:33:10;;;;;;;0.87;0.30;;;;;;;10.44;89.98;96251.25;6208148;28;20200;-58
2024/02/08 16:39:54;;;;;;;2.77;0.40;;;;;;;10.36;91.57;96240.38;6201425;28;20193;-59
2024/02/08 16:43:19;;;;;;;0.93;0.30;;;;;;;10.22;91.17;96201.03;6203886;28;20217;-58
2024/02/08 16:46:21;;;;;;;0.83;0.30;;;;;;;10.15;93.11;96224.50;6207357;28;20221;-57
2024/02/08 16:49:40;;;;;;;0.50;0.20;;;;;;;10.06;94.25;96244.75;6214383;28;20218;-59
2024/02/08 16:52:57;;;;;;;1.43;0.30;;;;;;;10.03;92.80;96211.50;6217144;28;20201;-59
2024/02/08 16:56:02;;;;;;;0.20;0.20;;;;;;;9.95;93.91;96216.59;6192300;28;20195;-57
2024/02/08 16:59:15;;;;;;;0.70;0.40;;;;;;;9.85;94.94;96230.72;6209367;28;20211;-59
2024/02/08 17:02:49;;;;;;;0.33;0.30;;;;;;;10.02;94.65;96231.22;6209253;28;20724;-58
2024/02/08 17:05:56;;;;;;;0.30;0.30;;;;;;;9.88;94.26;96216.91;6175136;28;20287;-58
2024/02/08 17:09:23;;;;;;;1.13;0.40;;;;;;;9.84;95.39;96226.50;6187138;28;20600;-58
2024/02/08 17:12:47;;;;;;;0.97;0.40;;;;;;;9.76;96.84;96189.84;6177763;28;20688;-58
2024/02/08 17:16:04;;;;;;;3.17;0.60;;;;;;;9.56;96.70;96194.16;6190635;28;20204;-59
2024/02/08 17:19:29;;;;;;;0.37;0.30;;;;;;;9.87;96.11;96244.56;6179777;28;20291;-59
2024/02/08 17:22:49;;;;;;;0.50;0.30;;;;;;;9.81;97.05;96189.81;6190632;28;20192;-59
2024/02/08 17:26:15;;;;;;;0.70;0.40;;;;;;;9.58;98.07;96223.13;6182244;28;20200;-58
2024/02/08 17:29:21;;;;;;;0.23;0.23;;;;;;;10.12;91.70;96179.00;6190264;28;20682;-58
2024/02/08 17:32:26;;;;;;;1.73;0.30;;;;;;;10.35;90.95;96172.25;6187307;28;20687;-58
2024/02/08 17:35:34;;;;;;;0.63;0.60;;;;;;;10.29;91.99;96196.22;6185960;28;20196;-58
2024/02/08 17:38:39;;;;;;;1.20;0.40;;;;;;;10.27;91.27;96200.22;6188089;28;20799;-57
2024/02/08 17:41:43;;;;;;;0.63;0.50;;;;;;;9.95;92.16;96164.22;6186763;28;20223;-59
2024/02/08 17:45:09;;;;;;;1.00;0.50;;;;;;;10.34;90.57;96192.72;6187274;28;20573;-58
2024/02/08 17:48:13;;;;;;;0.97;0.40;;;;;;;10.33;92.98;96186.59;6183949;28;20212;-58
2024/02/08 17:51:21;;;;;;;1.93;0.50;;;;;;;10.16;95.25;96178.19;6181891;28;20193;-58
2024/02/08 17:54:31;;;;;;;0.60;0.60;;;;;;;10.08;96.11;96190.19;6181280;28;20189;-58